Scroll down
FLIGHT INFORMATION
American Airlines

AAL1572

At Arrival Gate

KTUL
 KDFW
DATE: 2020-10-15
GATE: G2
GATE DEPARTURE: 09:04
TAKEOFF: 09:19
DATE: 2020-10-15
GATE:  -
LANDING: 10:04
GATE ARRIVAL: 10:10
FLIGHT DATA
Crew: 
Speed: 
414 kts
Altitude: 
22,008 ft
Stage Length: 
206.2 nm
Block Time: 
1.1 hrs
Flight Time: 
0.8 hrs
Fuel Used: 
5,852 lb
Cleared Route: KTUL PEJAY AXXEE MMANN LKINS SEEVR BRDJE NUSSS YAHBT BOSSI RW17C
TRACK DATA
50,000 ft 1,000 kts
AIRCRAFT INFO AND CUMULATIVE STATS
Aircraft Type: 
B738BW
Registration: 
SELCAL: 
CPBD
MSN/LN: 
33231 / 4563
Operator: 
Total Flights: 
5
Total Block Time: 
5.3 hrs
Total Flight Time: 
4.1 hrs
Total Fuel Time: 
30,267 lb
DATALINK LOG | Newest first | Current as of: 2020-12-01 02:07:05
LABEL SEQUENCE CONTENT Dn/Up
QD161610:10 7.1▼ Dn
QC111210:04▼ Dn
2U2717KDFW 150853Z 19010KT 10SM CLR 23/18 A2970 RMK AO2 SLP047 T02280178 58006▲ Up
2S3315KDFW▼ Dn
QB250809:19▼ Dn
QA105409:04 13▼ Dn
2U0016KTUL 150853Z 03012G28KT 10SM BKN045 OVC085 21/01 A2991 RMK AO2 PK WND 01036/0803 SLP119 T02110011 53037▲ Up
2S0549KTUL▼ Dn
Q00448[LINK ACK]▲ Up
Q00448[LINK TEST]▼ Dn


AIRCRAFT HISTORY
FLIGHT DATE FLIGHT NO. ORIGIN DESTINATION CLEARED ROUTE BLOCK TIME FLIGHT TIME FUEL USED PILOT
2020-11-04AAL413KDFW KMEM KDFW FORCK ELD KMEM1.5 hrs1.2 hrs8,672 lbCharles Harris
2020-10-15AAL1572KTUL KDFW KTUL PEJAY AXXEE MMANN LKINS SEEVR BRDJE NUSSS YAHBT BOSSI RW17C1.1 hrs0.8 hrs5,852 lbMichael Collier
2020-10-13AAL1446KDFW KTUL 1.1 hrs0.7 hrs5,180 lbMichael Collier
2020-10-13AAL9501KDAL KDFW KDAL RAYMA RW35C0.4 hrs0.2 hrs1,999 lbMichael Collier
2020-08-27AAL2201KMEM KDAL KMEM CHETO MUDHO NIXOE PEPOC CHLDR ANSWA LIT DIRRK KDAL1.5 hrs1.2 hrs8,564 lbRoberto Stopnicki